sensor_id;sensor_type;location;lat;lon;timestamp;temperature;humidity
18160;DHT22;9205;52.032;4.314;2023-03-01T00:02:19;2.90;99.90
18160;DHT22;9205;52.032;4.314;2023-03-01T00:04:49;3.00;99.90
18160;DHT22;9205;52.032;4.314;2023-03-01T00:07:17;2.90;99.90
18160;DHT22;9205;52.032;4.314;2023-03-01T00:09:50;3.00;99.90
18160;DHT22;9205;52.032;4.314;2023-03-01T00:12:18;2.90;99.90
18160;DHT22;9205;52.032;4.314;2023-03-01T00:14:46;2.90;99.90
18160;DHT22;9205;52.032;4.314;2023-03-01T00:17:13;2.80;1.00
18160;DHT22;9205;52.032;4.314;2023-03-01T00:19:47;2.70;1.00
18160;DHT22;9205;52.032;4.314;2023-03-01T00:22:27;2.70;1.00
18160;DHT22;9205;52.032;4.314;2023-03-01T00:24:55;2.80;1.00
18160;DHT22;9205;52.032;4.314;2023-03-01T00:27:23;2.80;1.00
18160;DHT22;9205;52.032;4.314;2023-03-01T00:29:52;2.90;74.60
18160;DHT22;9205;52.032;4.314;2023-03-01T00:32:20;2.80;99.90
18160;DHT22;9205;52.032;4.314;2023-03-01T00:34:50;2.90;99.90
18160;DHT22;9205;52.032;4.314;2023-03-01T00:37:27;2.80;99.90
18160;DHT22;9205;52.032;4.314;2023-03-01T00:39:55;2.70;99.90
18160;DHT22;9205;52.032;4.314;2023-03-01T00:42:23;2.80;99.90
18160;DHT22;9205;52.032;4.314;2023-03-01T00:44:51;2.80;1.00
18160;DHT22;9205;52.032;4.314;2023-03-01T00:47:18;2.90;1.00
18160;DHT22;9205;52.032;4.314;2023-03-01T00:49:49;2.80;1.00
18160;DHT22;9205;52.032;4.314;2023-03-01T00:52:19;2.80;1.00
18160;DHT22;9205;52.032;4.314;2023-03-01T00:54:51;2.90;1.00
18160;DHT22;9205;52.032;4.314;2023-03-01T00:57:22;2.70;1.00
18160;DHT22;9205;52.032;4.314;2023-03-01T00:59:49;2.70;1.00
18160;DHT22;9205;52.032;4.314;2023-03-01T01:02:18;2.70;50.70
18160;DHT22;9205;52.032;4.314;2023-03-01T01:04:46;2.70;99.90
18160;DHT22;9205;52.032;4.314;2023-03-01T01:07:21;2.80;99.90
18160;DHT22;9205;52.032;4.314;2023-03-01T01:09:52;2.70;99.90
18160;DHT22;9205;52.032;4.314;2023-03-01T01:12:20;2.80;99.90
18160;DHT22;9205;52.032;4.314;2023-03-01T01:14:48;2.70;1.00
18160;DHT22;9205;52.032;4.314;2023-03-01T01:17:16;2.70;1.00
18160;DHT22;9205;52.032;4.314;2023-03-01T01:19:53;2.70;1.00
18160;DHT22;9205;52.032;4.314;2023-03-01T01:22:24;2.70;1.00
18160;DHT22;9205;52.032;4.314;2023-03-01T01:24:56;2.70;1.00
18160;DHT22;9205;52.032;4.314;2023-03-01T01:27:25;2.70;1.00
18160;DHT22;9205;52.032;4.314;2023-03-01T01:29:53;2.50;99.90
18160;DHT22;9205;52.032;4.314;2023-03-01T01:32:24;2.80;99.90
18160;DHT22;9205;52.032;4.314;2023-03-01T01:34:54;2.80;99.90
18160;DHT22;9205;52.032;4.314;2023-03-01T01:37:26;2.80;1.00
18160;DHT22;9205;52.032;4.314;2023-03-01T01:40:11;2.70;1.00
18160;DHT22;9205;52.032;4.314;2023-03-01T01:42:40;2.60;1.00
18160;DHT22;9205;52.032;4.314;2023-03-01T01:45:33;2.60;1.00
18160;DHT22;9205;52.032;4.314;2023-03-01T01:48:10;2.70;1.00
18160;DHT22;9205;52.032;4.314;2023-03-01T01:50:41;2.70;1.00
18160;DHT22;9205;52.032;4.314;2023-03-01T01:53:13;2.70;1.00
18160;DHT22;9205;52.032;4.314;2023-03-01T01:55:46;2.50;1.00
18160;DHT22;9205;52.032;4.314;2023-03-01T01:58:18;2.60;1.00
18160;DHT22;9205;52.032;4.314;2023-03-01T02:00:48;2.50;1.00
18160;DHT22;9205;52.032;4.314;2023-03-01T02:03:20;2.60;1.00
18160;DHT22;9205;52.032;4.314;2023-03-01T02:06:06;2.50;1.00
18160;DHT22;9205;52.032;4.314;2023-03-01T02:08:49;2.70;77.40
18160;DHT22;9205;52.032;4.314;2023-03-01T02:11:37;2.60;99.90
18160;DHT22;9205;52.032;4.314;2023-03-01T02:14:19;2.60;99.90
18160;DHT22;9205;52.032;4.314;2023-03-01T02:16:51;2.50;99.90
18160;DHT22;9205;52.032;4.314;2023-03-01T02:19:39;2.50;99.90
18160;DHT22;9205;52.032;4.314;2023-03-01T02:22:21;2.50;99.90
18160;DHT22;9205;52.032;4.314;2023-03-01T02:25:09;2.40;99.90
18160;DHT22;9205;52.032;4.314;2023-03-01T02:27:51;2.40;99.90
18160;DHT22;9205;52.032;4.314;2023-03-01T02:30:29;2.50;99.90
18160;DHT22;9205;52.032;4.314;2023-03-01T02:33:27;2.40;99.90
18160;DHT22;9205;52.032;4.314;2023-03-01T02:35:59;2.50;99.90
18160;DHT22;9205;52.032;4.314;2023-03-01T02:38:28;2.50;99.90
18160;DHT22;9205;52.032;4.314;2023-03-01T02:40:59;2.50;99.90
18160;DHT22;9205;52.032;4.314;2023-03-01T02:43:35;2.20;99.90
18160;DHT22;9205;52.032;4.314;2023-03-01T02:46:41;2.50;99.90
18160;DHT22;9205;52.032;4.314;2023-03-01T02:49:22;2.50;99.90
18160;DHT22;9205;52.032;4.314;2023-03-01T02:52:23;2.30;99.90
18160;DHT22;9205;52.032;4.314;2023-03-01T02:55:03;2.50;99.90
18160;DHT22;9205;52.032;4.314;2023-03-01T02:57:43;2.40;99.90
18160;DHT22;9205;52.032;4.314;2023-03-01T03:00:18;2.30;99.90
18160;DHT22;9205;52.032;4.314;2023-03-01T03:02:53;2.40;99.90
18160;DHT22;9205;52.032;4.314;2023-03-01T03:05:26;2.20;1.00
18160;DHT22;9205;52.032;4.314;2023-03-01T03:07:59;2.40;1.00
18160;DHT22;9205;52.032;4.314;2023-03-01T03:10:35;2.20;1.00
18160;DHT22;9205;52.032;4.314;2023-03-01T03:13:08;2.40;1.00
18160;DHT22;9205;52.032;4.314;2023-03-01T03:15:38;2.20;1.00
18160;DHT22;9205;52.032;4.314;2023-03-01T03:18:13;2.30;1.00
18160;DHT22;9205;52.032;4.314;2023-03-01T03:20:42;2.30;1.00
18160;DHT22;9205;52.032;4.314;2023-03-01T03:23:19;2.20;1.00
18160;DHT22;9205;52.032;4.314;2023-03-01T03:25:56;2.20;1.00
18160;DHT22;9205;52.032;4.314;2023-03-01T03:28:23;2.10;1.00
18160;DHT22;9205;52.032;4.314;2023-03-01T03:31:03;2.20;1.00
18160;DHT22;9205;52.032;4.314;2023-03-01T03:33:35;2.20;1.00
18160;DHT22;9205;52.032;4.314;2023-03-01T03:36:15;2.20;1.00
18160;DHT22;9205;52.032;4.314;2023-03-01T03:38:44;2.20;1.00
18160;DHT22;9205;52.032;4.314;2023-03-01T03:41:23;2.20;1.00
18160;DHT22;9205;52.032;4.314;2023-03-01T03:43:51;2.10;1.00
18160;DHT22;9205;52.032;4.314;2023-03-01T03:46:22;2.00;1.00
18160;DHT22;9205;52.032;4.314;2023-03-01T03:48:51;2.20;1.00
18160;DHT22;9205;52.032;4.314;2023-03-01T03:51:28;2.10;1.00
18160;DHT22;9205;52.032;4.314;2023-03-01T03:54:02;2.10;1.00
18160;DHT22;9205;52.032;4.314;2023-03-01T03:56:32;2.00;1.00
18160;DHT22;9205;52.032;4.314;2023-03-01T03:59:02;2.10;1.00
18160;DHT22;9205;52.032;4.314;2023-03-01T04:01:33;2.00;1.00
18160;DHT22;9205;52.032;4.314;2023-03-01T04:04:03;2.00;1.00
18160;DHT22;9205;52.032;4.314;2023-03-01T04:06:33;1.90;1.00
18160;DHT22;9205;52.032;4.314;2023-03-01T04:09:02;1.90;1.00
18160;DHT22;9205;52.032;4.314;2023-03-01T04:11:30;2.00;1.00
18160;DHT22;9205;52.032;4.314;2023-03-01T04:14:00;2.00;1.00
18160;DHT22;9205;52.032;4.314;2023-03-01T04:16:32;2.00;1.00
18160;DHT22;9205;52.032;4.314;2023-03-01T04:19:00;1.90;1.00
18160;DHT22;9205;52.032;4.314;2023-03-01T04:21:29;2.00;1.00
18160;DHT22;9205;52.032;4.314;2023-03-01T04:23:57;1.80;1.00
18160;DHT22;9205;52.032;4.314;2023-03-01T04:26:24;2.00;1.00
18160;DHT22;9205;52.032;4.314;2023-03-01T04:28:58;2.00;1.00
18160;DHT22;9205;52.032;4.314;2023-03-01T04:31:29;2.00;1.00
18160;DHT22;9205;52.032;4.314;2023-03-01T04:33:57;1.80;1.00
18160;DHT22;9205;52.032;4.314;2023-03-01T04:36:29;1.80;1.00
18160;DHT22;9205;52.032;4.314;2023-03-01T04:39:03;1.70;1.00
18160;DHT22;9205;52.032;4.314;2023-03-01T04:41:40;1.70;1.00
18160;DHT22;9205;52.032;4.314;2023-03-01T04:44:09;1.70;1.00
18160;DHT22;9205;52.032;4.314;2023-03-01T04:46:37;1.80;1.00
18160;DHT22;9205;52.032;4.314;2023-03-01T04:49:05;1.70;1.00
18160;DHT22;9205;52.032;4.314;2023-03-01T04:51:42;1.90;1.00
18160;DHT22;9205;52.032;4.314;2023-03-01T04:54:15;1.60;1.00
18160;DHT22;9205;52.032;4.314;2023-03-01T04:56:43;1.70;1.00
18160;DHT22;9205;52.032;4.314;2023-03-01T04:59:11;1.70;1.00
18160;DHT22;9205;52.032;4.314;2023-03-01T05:01:40;1.70;1.00
18160;DHT22;9205;52.032;4.314;2023-03-01T05:04:11;1.60;1.00
18160;DHT22;9205;52.032;4.314;2023-03-01T05:06:43;1.80;1.00
18160;DHT22;9205;52.032;4.314;2023-03-01T05:09:14;1.70;1.00
18160;DHT22;9205;52.032;4.314;2023-03-01T05:11:44;1.80;1.00
18160;DHT22;9205;52.032;4.314;2023-03-01T05:14:12;1.60;1.00
18160;DHT22;9205;52.032;4.314;2023-03-01T05:16:39;1.70;1.00
18160;DHT22;9205;52.032;4.314;2023-03-01T05:19:07;1.60;1.00
18160;DHT22;9205;52.032;4.314;2023-03-01T05:21:42;1.70;1.00
18160;DHT22;9205;52.032;4.314;2023-03-01T05:24:31;1.60;1.00
18160;DHT22;9205;52.032;4.314;2023-03-01T05:27:00;1.60;1.00
18160;DHT22;9205;52.032;4.314;2023-03-01T05:29:30;1.60;1.00
18160;DHT22;9205;52.032;4.314;2023-03-01T05:32:03;1.70;1.00
18160;DHT22;9205;52.032;4.314;2023-03-01T05:34:33;1.60;1.00
18160;DHT22;9205;52.032;4.314;2023-03-01T05:37:04;1.50;1.00
18160;DHT22;9205;52.032;4.314;2023-03-01T05:39:33;1.50;1.00
18160;DHT22;9205;52.032;4.314;2023-03-01T05:42:01;1.40;1.00
18160;DHT22;9205;52.032;4.314;2023-03-01T05:44:29;1.60;1.00
18160;DHT22;9205;52.032;4.314;2023-03-01T05:46:57;1.40;1.00
18160;DHT22;9205;52.032;4.314;2023-03-01T05:49:34;1.60;1.00
18160;DHT22;9205;52.032;4.314;2023-03-01T05:52:03;1.50;1.00
18160;DHT22;9205;52.032;4.314;2023-03-01T05:54:39;1.30;1.00
18160;DHT22;9205;52.032;4.314;2023-03-01T05:57:09;1.50;1.00
18160;DHT22;9205;52.032;4.314;2023-03-01T05:59:39;1.30;1.00
18160;DHT22;9205;52.032;4.314;2023-03-01T06:02:07;1.40;1.00
18160;DHT22;9205;52.032;4.314;2023-03-01T06:04:35;1.40;1.00
18160;DHT22;9205;52.032;4.314;2023-03-01T06:07:08;1.40;1.00
18160;DHT22;9205;52.032;4.314;2023-03-01T06:09:35;1.30;1.00
18160;DHT22;9205;52.032;4.314;2023-03-01T06:12:03;1.40;1.00
18160;DHT22;9205;52.032;4.314;2023-03-01T06:14:32;1.30;1.00
18160;DHT22;9205;52.032;4.314;2023-03-01T06:17:00;1.50;1.00
18160;DHT22;9205;52.032;4.314;2023-03-01T06:19:27;1.50;1.00
18160;DHT22;9205;52.032;4.314;2023-03-01T06:21:55;1.40;1.00
18160;DHT22;9205;52.032;4.314;2023-03-01T06:24:24;1.30;1.00
18160;DHT22;9205;52.032;4.314;2023-03-01T06:26:52;1.30;1.00
18160;DHT22;9205;52.032;4.314;2023-03-01T06:29:21;1.40;1.00
18160;DHT22;9205;52.032;4.314;2023-03-01T06:31:52;1.50;1.00
18160;DHT22;9205;52.032;4.314;2023-03-01T06:34:19;1.20;1.00
18160;DHT22;9205;52.032;4.314;2023-03-01T06:36:47;1.20;1.00
18160;DHT22;9205;52.032;4.314;2023-03-01T06:39:17;1.30;1.00
18160;DHT22;9205;52.032;4.314;2023-03-01T06:41:47;1.30;1.00
18160;DHT22;9205;52.032;4.314;2023-03-01T06:44:15;1.30;1.00
18160;DHT22;9205;52.032;4.314;2023-03-01T06:46:42;1.10;1.00
18160;DHT22;9205;52.032;4.314;2023-03-01T06:49:12;1.20;1.00
18160;DHT22;9205;52.032;4.314;2023-03-01T06:51:43;1.40;1.00
18160;DHT22;9205;52.032;4.314;2023-03-01T06:54:11;1.30;1.00
18160;DHT22;9205;52.032;4.314;2023-03-01T06:56:39;1.30;1.00
18160;DHT22;9205;52.032;4.314;2023-03-01T06:59:08;1.20;1.00
18160;DHT22;9205;52.032;4.314;2023-03-01T07:01:35;1.20;1.00
18160;DHT22;9205;52.032;4.314;2023-03-01T07:04:03;1.30;1.00
18160;DHT22;9205;52.032;4.314;2023-03-01T07:06:32;1.30;1.00
18160;DHT22;9205;52.032;4.314;2023-03-01T07:08:59;1.20;1.00
18160;DHT22;9205;52.032;4.314;2023-03-01T07:11:27;1.30;1.00
18160;DHT22;9205;52.032;4.314;2023-03-01T07:13:55;1.30;1.00
18160;DHT22;9205;52.032;4.314;2023-03-01T07:16:25;1.30;1.00
18160;DHT22;9205;52.032;4.314;2023-03-01T07:18:57;1.10;1.00
18160;DHT22;9205;52.032;4.314;2023-03-01T07:21:25;1.20;1.00
18160;DHT22;9205;52.032;4.314;2023-03-01T07:23:55;1.30;1.00
18160;DHT22;9205;52.032;4.314;2023-03-01T07:26:24;1.40;1.00
18160;DHT22;9205;52.032;4.314;2023-03-01T07:28:51;1.30;1.00
18160;DHT22;9205;52.032;4.314;2023-03-01T07:31:19;1.40;1.00
18160;DHT22;9205;52.032;4.314;2023-03-01T07:33:48;1.40;1.00
18160;DHT22;9205;52.032;4.314;2023-03-01T07:36:15;1.50;1.00
18160;DHT22;9205;52.032;4.314;2023-03-01T07:38:43;1.60;1.00
18160;DHT22;9205;52.032;4.314;2023-03-01T07:41:11;1.70;1.00
18160;DHT22;9205;52.032;4.314;2023-03-01T07:43:38;1.70;1.00
18160;DHT22;9205;52.032;4.314;2023-03-01T07:46:06;1.60;1.00
18160;DHT22;9205;52.032;4.314;2023-03-01T07:48:33;1.60;1.00
18160;DHT22;9205;52.032;4.314;2023-03-01T07:51:04;1.80;1.00
18160;DHT22;9205;52.032;4.314;2023-03-01T07:53:33;1.60;1.00
18160;DHT22;9205;52.032;4.314;2023-03-01T07:56:03;1.80;1.00
18160;DHT22;9205;52.032;4.314;2023-03-01T07:58:31;1.80;1.00
18160;DHT22;9205;52.032;4.314;2023-03-01T08:01:02;1.90;1.00
18160;DHT22;9205;52.032;4.314;2023-03-01T08:03:29;1.90;1.00
18160;DHT22;9205;52.032;4.314;2023-03-01T08:05:59;2.00;1.00
18160;DHT22;9205;52.032;4.314;2023-03-01T08:08:29;2.10;1.00
18160;DHT22;9205;52.032;4.314;2023-03-01T08:10:57;2.10;1.00
18160;DHT22;9205;52.032;4.314;2023-03-01T08:13:26;2.20;1.00
18160;DHT22;9205;52.032;4.314;2023-03-01T08:15:54;2.20;1.00
18160;DHT22;9205;52.032;4.314;2023-03-01T08:18:28;2.10;1.00
18160;DHT22;9205;52.032;4.314;2023-03-01T08:20:56;2.20;1.00
18160;DHT22;9205;52.032;4.314;2023-03-01T08:23:30;2.30;1.00
18160;DHT22;9205;52.032;4.314;2023-03-01T08:26:04;2.30;1.00
18160;DHT22;9205;52.032;4.314;2023-03-01T08:28:33;2.50;1.00
18160;DHT22;9205;52.032;4.314;2023-03-01T08:31:12;2.50;1.00
18160;DHT22;9205;52.032;4.314;2023-03-01T08:33:40;2.60;1.00
18160;DHT22;9205;52.032;4.314;2023-03-01T08:36:08;2.70;1.00
18160;DHT22;9205;52.032;4.314;2023-03-01T08:38:37;2.80;1.00
18160;DHT22;9205;52.032;4.314;2023-03-01T08:41:05;3.00;1.00
18160;DHT22;9205;52.032;4.314;2023-03-01T08:43:32;3.00;1.00
18160;DHT22;9205;52.032;4.314;2023-03-01T08:46:00;3.10;1.00
18160;DHT22;9205;52.032;4.314;2023-03-01T08:48:28;3.20;1.00
18160;DHT22;9205;52.032;4.314;2023-03-01T08:50:56;3.30;1.00
18160;DHT22;9205;52.032;4.314;2023-03-01T08:53:24;3.30;1.00
18160;DHT22;9205;52.032;4.314;2023-03-01T08:55:53;3.30;1.00
18160;DHT22;9205;52.032;4.314;2023-03-01T08:58:20;3.50;1.00
18160;DHT22;9205;52.032;4.314;2023-03-01T09:00:48;3.50;1.00
18160;DHT22;9205;52.032;4.314;2023-03-01T09:03:18;3.60;1.00
18160;DHT22;9205;52.032;4.314;2023-03-01T09:05:50;3.60;1.00
18160;DHT22;9205;52.032;4.314;2023-03-01T09:08:24;3.60;1.00
18160;DHT22;9205;52.032;4.314;2023-03-01T09:11:03;3.70;1.00
18160;DHT22;9205;52.032;4.314;2023-03-01T09:13:33;3.80;1.00
18160;DHT22;9205;52.032;4.314;2023-03-01T09:16:03;4.00;1.00
18160;DHT22;9205;52.032;4.314;2023-03-01T09:18:35;4.10;1.00
18160;DHT22;9205;52.032;4.314;2023-03-01T09:21:04;4.20;1.00
18160;DHT22;9205;52.032;4.314;2023-03-01T09:23:34;4.10;99.90
18160;DHT22;9205;52.032;4.314;2023-03-01T09:26:10;4.20;99.90
18160;DHT22;9205;52.032;4.314;2023-03-01T09:28:44;4.30;12.90
18160;DHT22;9205;52.032;4.314;2023-03-01T09:31:23;4.40;1.00
18160;DHT22;9205;52.032;4.314;2023-03-01T09:33:52;4.40;1.00
18160;DHT22;9205;52.032;4.314;2023-03-01T09:36:23;4.50;1.00
18160;DHT22;9205;52.032;4.314;2023-03-01T09:38:57;4.60;99.90
18160;DHT22;9205;52.032;4.314;2023-03-01T09:41:37;4.70;1.00
18160;DHT22;9205;52.032;4.314;2023-03-01T09:44:20;4.70;1.00
18160;DHT22;9205;52.032;4.314;2023-03-01T09:46:55;4.70;99.90
18160;DHT22;9205;52.032;4.314;2023-03-01T09:49:28;4.80;1.00
18160;DHT22;9205;52.032;4.314;2023-03-01T09:52:24;4.80;1.00
18160;DHT22;9205;52.032;4.314;2023-03-01T09:55:52;4.90;99.90
18160;DHT22;9205;52.032;4.314;2023-03-01T09:58:47;5.00;1.00
18160;DHT22;9205;52.032;4.314;2023-03-01T10:01:35;5.00;99.90
18160;DHT22;9205;52.032;4.314;2023-03-01T10:04:41;5.00;1.00
18160;DHT22;9205;52.032;4.314;2023-03-01T10:07:29;5.10;1.00
18160;DHT22;9205;52.032;4.314;2023-03-01T10:10:05;5.10;99.90
18160;DHT22;9205;52.032;4.314;2023-03-01T10:12:58;5.20;99.90
18160;DHT22;9205;52.032;4.314;2023-03-01T10:15:41;5.30;1.00
18160;DHT22;9205;52.032;4.314;2023-03-01T10:18:33;5.30;1.00
18160;DHT22;9205;52.032;4.314;2023-03-01T10:21:15;5.50;1.00
18160;DHT22;9205;52.032;4.314;2023-03-01T10:23:50;5.50;1.00
18160;DHT22;9205;52.032;4.314;2023-03-01T10:26:36;5.70;1.00
18160;DHT22;9205;52.032;4.314;2023-03-01T10:29:13;5.70;99.90
18160;DHT22;9205;52.032;4.314;2023-03-01T10:31:44;5.60;99.90
18160;DHT22;9205;52.032;4.314;2023-03-01T10:34:16;5.70;99.90
18160;DHT22;9205;52.032;4.314;2023-03-01T10:36:50;5.80;99.90
18160;DHT22;9205;52.032;4.314;2023-03-01T10:39:26;5.80;99.90
18160;DHT22;9205;52.032;4.314;2023-03-01T10:42:02;5.90;99.90
18160;DHT22;9205;52.032;4.314;2023-03-01T10:44:43;6.00;19.30
18160;DHT22;9205;52.032;4.314;2023-03-01T10:47:17;6.00;1.00
18160;DHT22;9205;52.032;4.314;2023-03-01T10:50:01;6.10;1.00
18160;DHT22;9205;52.032;4.314;2023-03-01T10:52:33;6.20;1.00
18160;DHT22;9205;52.032;4.314;2023-03-01T10:55:04;6.10;1.00
18160;DHT22;9205;52.032;4.314;2023-03-01T10:58:08;6.10;1.00
18160;DHT22;9205;52.032;4.314;2023-03-01T11:00:51;6.30;1.00
18160;DHT22;9205;52.032;4.314;2023-03-01T11:03:23;6.40;1.00
18160;DHT22;9205;52.032;4.314;2023-03-01T11:05:58;6.50;1.00
18160;DHT22;9205;52.032;4.314;2023-03-01T11:08:41;6.50;1.00
18160;DHT22;9205;52.032;4.314;2023-03-01T11:11:31;6.50;1.00
18160;DHT22;9205;52.032;4.314;2023-03-01T11:14:03;6.60;1.00
18160;DHT22;9205;52.032;4.314;2023-03-01T11:16:36;6.60;1.00
18160;DHT22;9205;52.032;4.314;2023-03-01T11:19:18;6.60;1.00
18160;DHT22;9205;52.032;4.314;2023-03-01T11:22:01;6.60;1.00
18160;DHT22;9205;52.032;4.314;2023-03-01T11:24:38;6.60;1.00
18160;DHT22;9205;52.032;4.314;2023-03-01T11:27:19;6.80;1.00
18160;DHT22;9205;52.032;4.314;2023-03-01T11:29:57;6.80;1.00
18160;DHT22;9205;52.032;4.314;2023-03-01T11:32:35;6.80;1.00
18160;DHT22;9205;52.032;4.314;2023-03-01T11:35:15;6.90;1.00
18160;DHT22;9205;52.032;4.314;2023-03-01T11:37:58;7.00;1.00
18160;DHT22;9205;52.032;4.314;2023-03-01T11:40:41;7.10;1.00
18160;DHT22;9205;52.032;4.314;2023-03-01T11:43:17;7.20;1.00
18160;DHT22;9205;52.032;4.314;2023-03-01T11:46:08;7.30;1.00
18160;DHT22;9205;52.032;4.314;2023-03-01T11:48:58;7.40;1.00
18160;DHT22;9205;52.032;4.314;2023-03-01T11:51:47;7.60;1.00
18160;DHT22;9205;52.032;4.314;2023-03-01T11:54:31;7.50;1.00
18160;DHT22;9205;52.032;4.314;2023-03-01T11:57:14;7.40;1.00
18160;DHT22;9205;52.032;4.314;2023-03-01T12:00:32;7.50;1.00
18160;DHT22;9205;52.032;4.314;2023-03-01T12:03:25;7.60;1.00
18160;DHT22;9205;52.032;4.314;2023-03-01T12:06:25;7.60;1.00
18160;DHT22;9205;52.032;4.314;2023-03-01T12:09:17;7.60;1.00
18160;DHT22;9205;52.032;4.314;2023-03-01T12:12:11;7.70;1.00
18160;DHT22;9205;52.032;4.314;2023-03-01T12:18:25;7.80;1.00
18160;DHT22;9205;52.032;4.314;2023-03-01T12:21:10;7.80;1.00
18160;DHT22;9205;52.032;4.314;2023-03-01T12:24:14;7.80;1.00
18160;DHT22;9205;52.032;4.314;2023-03-01T12:27:12;7.70;1.00
18160;DHT22;9205;52.032;4.314;2023-03-01T12:30:02;7.90;1.00
18160;DHT22;9205;52.032;4.314;2023-03-01T12:32:58;7.90;1.00
18160;DHT22;9205;52.032;4.314;2023-03-01T12:35:54;8.20;1.00
18160;DHT22;9205;52.032;4.314;2023-03-01T12:38:42;8.10;1.00
18160;DHT22;9205;52.032;4.314;2023-03-01T12:44:34;8.20;1.00
18160;DHT22;9205;52.032;4.314;2023-03-01T12:47:23;8.30;1.00
18160;DHT22;9205;52.032;4.314;2023-03-01T12:50:05;8.20;1.00
18160;DHT22;9205;52.032;4.314;2023-03-01T12:52:43;8.10;1.00
18160;DHT22;9205;52.032;4.314;2023-03-01T12:55:24;8.20;1.00
18160;DHT22;9205;52.032;4.314;2023-03-01T12:58:06;8.00;1.00
18160;DHT22;9205;52.032;4.314;2023-03-01T13:00:48;7.90;1.00
18160;DHT22;9205;52.032;4.314;2023-03-01T13:03:32;8.00;1.00
18160;DHT22;9205;52.032;4.314;2023-03-01T13:06:27;8.10;1.00
18160;DHT22;9205;52.032;4.314;2023-03-01T13:09:07;8.10;1.00
18160;DHT22;9205;52.032;4.314;2023-03-01T13:11:42;8.10;1.00
18160;DHT22;9205;52.032;4.314;2023-03-01T13:14:36;8.30;1.00
18160;DHT22;9205;52.032;4.314;2023-03-01T13:17:33;8.20;1.00
18160;DHT22;9205;52.032;4.314;2023-03-01T13:20:15;8.30;1.00
18160;DHT22;9205;52.032;4.314;2023-03-01T13:22:45;8.40;1.00
18160;DHT22;9205;52.032;4.314;2023-03-01T13:25:19;8.30;1.00
18160;DHT22;9205;52.032;4.314;2023-03-01T13:27:47;8.40;1.00
18160;DHT22;9205;52.032;4.314;2023-03-01T13:30:41;8.50;1.00
18160;DHT22;9205;52.032;4.314;2023-03-01T13:33:41;8.50;1.00
18160;DHT22;9205;52.032;4.314;2023-03-01T13:36:11;8.40;1.00
18160;DHT22;9205;52.032;4.314;2023-03-01T13:39:28;8.30;1.00
18160;DHT22;9205;52.032;4.314;2023-03-01T13:42:03;8.40;1.00
18160;DHT22;9205;52.032;4.314;2023-03-01T13:44:33;8.50;1.00
18160;DHT22;9205;52.032;4.314;2023-03-01T13:47:14;8.40;1.00
18160;DHT22;9205;52.032;4.314;2023-03-01T13:49:48;8.50;1.00
18160;DHT22;9205;52.032;4.314;2023-03-01T13:52:41;8.70;1.00
18160;DHT22;9205;52.032;4.314;2023-03-01T13:55:17;8.60;1.00
18160;DHT22;9205;52.032;4.314;2023-03-01T13:57:51;8.50;1.00
18160;DHT22;9205;52.032;4.314;2023-03-01T14:00:31;8.60;1.00
18160;DHT22;9205;52.032;4.314;2023-03-01T14:03:08;8.80;1.00
18160;DHT22;9205;52.032;4.314;2023-03-01T14:05:40;8.80;1.00
18160;DHT22;9205;52.032;4.314;2023-03-01T14:08:21;8.70;1.00
18160;DHT22;9205;52.032;4.314;2023-03-01T14:10:58;8.70;1.00
18160;DHT22;9205;52.032;4.314;2023-03-01T14:13:55;8.80;1.00
18160;DHT22;9205;52.032;4.314;2023-03-01T14:16:39;8.70;99.90
18160;DHT22;9205;52.032;4.314;2023-03-01T14:19:18;8.70;99.90
18160;DHT22;9205;52.032;4.314;2023-03-01T14:21:59;8.60;99.90
18160;DHT22;9205;52.032;4.314;2023-03-01T14:24:36;8.40;99.90
18160;DHT22;9205;52.032;4.314;2023-03-01T14:27:15;8.20;99.90
18160;DHT22;9205;52.032;4.314;2023-03-01T14:29:44;8.40;99.90
18160;DHT22;9205;52.032;4.314;2023-03-01T14:32:24;8.50;99.90
18160;DHT22;9205;52.032;4.314;2023-03-01T14:34:56;8.50;99.90
18160;DHT22;9205;52.032;4.314;2023-03-01T14:37:27;8.50;99.90
18160;DHT22;9205;52.032;4.314;2023-03-01T14:39:57;8.60;99.90
18160;DHT22;9205;52.032;4.314;2023-03-01T14:42:29;8.50;99.90
18160;DHT22;9205;52.032;4.314;2023-03-01T14:45:02;8.80;99.90
18160;DHT22;9205;52.032;4.314;2023-03-01T14:47:34;8.70;99.90
18160;DHT22;9205;52.032;4.314;2023-03-01T14:50:15;8.70;99.90
18160;DHT22;9205;52.032;4.314;2023-03-01T14:52:53;8.60;99.90
18160;DHT22;9205;52.032;4.314;2023-03-01T14:55:26;8.70;99.90
18160;DHT22;9205;52.032;4.314;2023-03-01T14:57:57;8.50;99.90
18160;DHT22;9205;52.032;4.314;2023-03-01T15:00:33;8.70;99.90
18160;DHT22;9205;52.032;4.314;2023-03-01T15:03:07;8.50;99.90
18160;DHT22;9205;52.032;4.314;2023-03-01T15:05:43;8.40;99.90
18160;DHT22;9205;52.032;4.314;2023-03-01T15:08:18;8.20;99.90
18160;DHT22;9205;52.032;4.314;2023-03-01T15:10:58;8.20;99.90
18160;DHT22;9205;52.032;4.314;2023-03-01T15:13:30;8.20;99.90
18160;DHT22;9205;52.032;4.314;2023-03-01T15:16:07;8.20;99.90
18160;DHT22;9205;52.032;4.314;2023-03-01T15:18:45;8.20;99.90
18160;DHT22;9205;52.032;4.314;2023-03-01T15:21:21;8.10;99.90
18160;DHT22;9205;52.032;4.314;2023-03-01T15:23:53;8.00;99.90
18160;DHT22;9205;52.032;4.314;2023-03-01T15:26:28;8.00;99.90
18160;DHT22;9205;52.032;4.314;2023-03-01T15:28:58;8.10;99.90
18160;DHT22;9205;52.032;4.314;2023-03-01T15:31:32;8.10;99.90
18160;DHT22;9205;52.032;4.314;2023-03-01T15:34:21;8.00;99.90
18160;DHT22;9205;52.032;4.314;2023-03-01T15:36:53;7.90;99.90
18160;DHT22;9205;52.032;4.314;2023-03-01T15:39:38;7.80;99.90
18160;DHT22;9205;52.032;4.314;2023-03-01T15:42:10;7.80;99.90
18160;DHT22;9205;52.032;4.314;2023-03-01T15:44:40;7.70;99.90
18160;DHT22;9205;52.032;4.314;2023-03-01T15:47:27;7.70;99.90
18160;DHT22;9205;52.032;4.314;2023-03-01T15:49:58;7.70;99.90
18160;DHT22;9205;52.032;4.314;2023-03-01T15:52:32;7.70;99.90
18160;DHT22;9205;52.032;4.314;2023-03-01T15:55:10;7.70;99.90
18160;DHT22;9205;52.032;4.314;2023-03-01T15:57:43;7.60;99.90
18160;DHT22;9205;52.032;4.314;2023-03-01T16:00:12;7.60;99.90
18160;DHT22;9205;52.032;4.314;2023-03-01T16:02:45;7.70;99.90
18160;DHT22;9205;52.032;4.314;2023-03-01T16:05:18;7.70;99.90
18160;DHT22;9205;52.032;4.314;2023-03-01T16:07:49;7.60;99.90
18160;DHT22;9205;52.032;4.314;2023-03-01T16:10:17;7.60;99.90
18160;DHT22;9205;52.032;4.314;2023-03-01T16:12:54;7.60;99.90
18160;DHT22;9205;52.032;4.314;2023-03-01T16:15:24;7.50;99.90
18160;DHT22;9205;52.032;4.314;2023-03-01T16:17:53;7.50;99.90
18160;DHT22;9205;52.032;4.314;2023-03-01T16:20:22;7.50;99.90
18160;DHT22;9205;52.032;4.314;2023-03-01T16:22:53;7.40;99.90
18160;DHT22;9205;52.032;4.314;2023-03-01T16:25:21;7.40;99.90
18160;DHT22;9205;52.032;4.314;2023-03-01T16:27:50;7.40;99.90
18160;DHT22;9205;52.032;4.314;2023-03-01T16:30:21;7.40;99.90
18160;DHT22;9205;52.032;4.314;2023-03-01T16:32:50;7.30;99.90
18160;DHT22;9205;52.032;4.314;2023-03-01T16:35:20;7.30;99.90
18160;DHT22;9205;52.032;4.314;2023-03-01T16:37:52;7.20;99.90
18160;DHT22;9205;52.032;4.314;2023-03-01T16:40:23;7.20;99.90
18160;DHT22;9205;52.032;4.314;2023-03-01T16:42:54;7.10;99.90
18160;DHT22;9205;52.032;4.314;2023-03-01T16:45:25;7.10;99.90
18160;DHT22;9205;52.032;4.314;2023-03-01T16:47:56;7.10;99.90
18160;DHT22;9205;52.032;4.314;2023-03-01T16:50:27;7.10;99.90
18160;DHT22;9205;52.032;4.314;2023-03-01T16:52:56;7.10;99.90
18160;DHT22;9205;52.032;4.314;2023-03-01T16:55:23;7.00;99.90
18160;DHT22;9205;52.032;4.314;2023-03-01T16:57:51;6.90;99.90
18160;DHT22;9205;52.032;4.314;2023-03-01T17:00:20;6.90;99.90
18160;DHT22;9205;52.032;4.314;2023-03-01T17:02:51;6.90;99.90
18160;DHT22;9205;52.032;4.314;2023-03-01T17:05:22;6.90;99.90
18160;DHT22;9205;52.032;4.314;2023-03-01T17:07:56;6.80;99.90
18160;DHT22;9205;52.032;4.314;2023-03-01T17:10:25;6.80;99.90